createdAt,value
2019-04-29T00:00:04.904Z,7.80
2019-04-29T00:02:35.599Z,8.38
2019-04-29T00:05:05.590Z,9.58
2019-04-29T00:07:34.562Z,8.58
2019-04-29T00:10:05.708Z,8.70
2019-04-29T00:12:34.632Z,7.55
2019-04-29T00:15:19.145Z,8.23
2019-04-29T00:18:00.707Z,8.70
2019-04-29T00:20:36.298Z,8.20
2019-04-29T00:23:05.319Z,8.68
2019-04-29T00:25:34.278Z,8.15
2019-04-29T00:28:03.174Z,8.65
2019-04-29T00:30:32.166Z,8.70
2019-04-29T00:33:01.089Z,8.85
2019-04-29T00:35:30.085Z,9.18
2019-04-29T00:38:13.762Z,9.30
2019-04-29T00:41:04.423Z,8.50
2019-04-29T00:43:49.943Z,8.10
2019-04-29T00:46:18.776Z,10.00
2019-04-29T00:48:47.718Z,10.05
2019-04-29T00:51:16.674Z,10.25
2019-04-29T00:53:46.399Z,8.95
2019-04-29T00:56:16.095Z,8.40
2019-04-29T00:58:44.961Z,8.60
2019-04-29T01:01:18.152Z,9.68
2019-04-29T01:03:47.047Z,8.80
2019-04-29T01:06:15.891Z,8.43
2019-04-29T01:08:44.767Z,9.48
2019-04-29T01:11:13.609Z,9.50
2019-04-29T01:13:42.551Z,8.03
2019-04-29T01:16:11.645Z,9.90
2019-04-29T01:18:40.466Z,9.05
2019-04-29T01:21:09.350Z,9.18
2019-04-29T01:23:38.170Z,9.55
2019-04-29T01:26:34.219Z,7.90
2019-04-29T01:29:03.990Z,8.90
2019-04-29T01:31:33.083Z,7.65
2019-04-29T01:34:11.183Z,9.10
2019-04-29T01:36:42.028Z,8.60
2019-04-29T01:39:12.583Z,9.60
2019-04-29T01:41:50.467Z,7.47
2019-04-29T01:44:19.391Z,9.65
2019-04-29T01:46:48.362Z,7.67
2019-04-29T01:49:17.192Z,7.40
2019-04-29T01:51:46.020Z,8.38
2019-04-29T01:54:14.846Z,8.05
2019-04-29T01:56:43.694Z,7.35
2019-04-29T01:59:12.750Z,7.62
2019-04-29T02:01:41.666Z,7.58
2019-04-29T02:04:10.645Z,7.08
2019-04-29T02:06:39.453Z,7.17
2019-04-29T02:09:11.679Z,7.75
2019-04-29T02:11:40.806Z,7.17
2019-04-29T02:14:09.635Z,7.55
2019-04-29T02:16:38.551Z,7.20
2019-04-29T02:19:07.346Z,7.45
2019-04-29T02:21:36.248Z,7.35
2019-04-29T02:24:12.959Z,7.42
2019-04-29T02:26:41.837Z,6.87
2019-04-29T02:29:10.730Z,7.80
2019-04-29T02:31:40.543Z,7.60
2019-04-29T02:34:09.456Z,8.70
2019-04-29T02:36:38.595Z,7.95
2019-04-29T02:39:17.509Z,9.33
2019-04-29T02:41:57.408Z,9.80
2019-04-29T02:44:26.381Z,12.43
2019-04-29T02:46:55.353Z,10.63
2019-04-29T02:49:24.473Z,12.65
2019-04-29T02:51:53.617Z,12.50
2019-04-29T02:54:23.766Z,12.53
2019-04-29T02:57:04.242Z,14.13
2019-04-29T02:59:37.767Z,14.60
2019-04-29T03:02:31.698Z,17.17
2019-04-29T03:05:14.242Z,14.35
2019-04-29T03:07:43.380Z,16.23
2019-04-29T03:10:12.596Z,15.68
2019-04-29T03:12:41.611Z,16.27
2019-04-29T03:15:11.071Z,15.48
2019-04-29T03:17:40.039Z,17.55
2019-04-29T03:20:14.943Z,16.42
2019-04-29T03:22:44.574Z,15.13
2019-04-29T03:25:13.709Z,14.87
2019-04-29T03:27:42.525Z,16.20
2019-04-29T03:30:16.959Z,14.65
2019-04-29T03:32:45.856Z,16.67
2019-04-29T03:35:14.975Z,17.40
2019-04-29T03:37:43.928Z,15.85
2019-04-29T03:40:13.726Z,15.60
2019-04-29T03:42:42.617Z,14.75
2019-04-29T03:45:11.860Z,15.78
2019-04-29T03:47:40.833Z,15.70
2019-04-29T03:50:09.864Z,16.87
2019-04-29T03:52:38.737Z,14.53
2019-04-29T03:55:07.709Z,15.72
2019-04-29T03:57:37.500Z,16.32
2019-04-29T04:00:06.723Z,16.30
2019-04-29T04:02:41.895Z,16.73
2019-04-29T04:05:32.964Z,15.95
2019-04-29T04:08:20.306Z,17.25
2019-04-29T04:10:49.158Z,17.07
2019-04-29T04:13:18.235Z,16.07
2019-04-29T04:15:47.229Z,16.85
2019-04-29T04:18:22.485Z,18.32
2019-04-29T04:20:52.135Z,17.82
2019-04-29T04:23:21.142Z,19.55
2019-04-29T04:25:50.342Z,18.40
2019-04-29T04:28:19.338Z,18.73
2019-04-29T04:30:48.805Z,18.40
2019-04-29T04:33:18.035Z,17.73
2019-04-29T04:35:47.080Z,19.00
2019-04-29T04:38:16.067Z,20.27
2019-04-29T04:41:00.077Z,19.48
2019-04-29T04:43:29.440Z,17.65
2019-04-29T04:45:58.460Z,18.85
2019-04-29T04:48:27.559Z,20.12
2019-04-29T04:50:56.490Z,19.50
2019-04-29T04:53:25.427Z,21.95
2019-04-29T04:55:56.646Z,21.25
2019-04-29T04:58:25.661Z,21.50
2019-04-29T05:00:54.607Z,21.87
2019-04-29T05:03:23.588Z,22.73
2019-04-29T05:05:52.647Z,22.80
2019-04-29T05:08:21.532Z,23.20
2019-04-29T05:10:50.967Z,24.23
2019-04-29T05:13:27.891Z,25.32
2019-04-29T05:15:51.159Z,26.85
2019-04-29T05:18:20.250Z,27.58
2019-04-29T05:20:49.243Z,26.93
2019-04-29T05:23:18.442Z,24.77
2019-04-29T05:25:47.556Z,27.65
2019-04-29T05:28:16.636Z,26.77
2019-04-29T05:30:45.622Z,28.90
2019-04-29T05:33:14.630Z,25.70
2019-04-29T05:35:56.711Z,26.62
2019-04-29T05:38:29.191Z,28.20
2019-04-29T05:40:58.346Z,26.33
2019-04-29T05:43:35.202Z,25.02
2019-04-29T05:46:10.196Z,25.52
2019-04-29T05:48:39.294Z,24.72
2019-04-29T05:51:29.233Z,24.92
2019-04-29T05:53:59.424Z,23.45
2019-04-29T05:56:28.477Z,24.35
2019-04-29T05:58:57.462Z,24.27
2019-04-29T06:01:27.930Z,25.80
2019-04-29T06:03:56.835Z,24.85
2019-04-29T06:06:25.675Z,25.72
2019-04-29T06:08:54.508Z,25.82
2019-04-29T06:11:23.515Z,27.50
2019-04-29T06:13:52.467Z,23.42
2019-04-29T06:16:22.742Z,24.15
2019-04-29T06:18:59.677Z,24.77
2019-04-29T06:21:22.554Z,23.05
2019-04-29T06:23:54.434Z,24.57
2019-04-29T06:26:22.411Z,24.98
2019-04-29T06:28:51.349Z,27.05
2019-04-29T06:31:21.416Z,25.43
2019-04-29T06:33:50.367Z,25.23
2019-04-29T06:36:19.415Z,24.70
2019-04-29T06:38:48.322Z,25.15
2019-04-29T06:41:17.368Z,25.37
2019-04-29T06:43:46.236Z,25.52
2019-04-29T06:46:15.060Z,24.90
2019-04-29T06:48:44.071Z,27.27
2019-04-29T06:51:13.004Z,26.12
2019-04-29T06:53:42.061Z,28.55
2019-04-29T06:56:11.871Z,29.05
2019-04-29T06:58:40.736Z,27.73
2019-04-29T07:01:09.603Z,29.65
2019-04-29T07:03:38.603Z,30.17
2019-04-29T07:06:07.826Z,28.02
2019-04-29T07:08:36.883Z,27.15
2019-04-29T07:11:06.825Z,30.80
2019-04-29T07:13:36.332Z,28.60
2019-04-29T07:16:05.522Z,28.85
2019-04-29T07:18:34.558Z,27.90
2019-04-29T07:21:07.518Z,30.82
2019-04-29T07:23:35.760Z,28.40
2019-04-29T07:26:04.859Z,28.60
2019-04-29T07:28:33.842Z,30.08
2019-04-29T07:31:03.303Z,29.10
2019-04-29T07:33:32.438Z,30.05
2019-04-29T07:36:10.743Z,29.42
2019-04-29T07:38:41.080Z,30.23
2019-04-29T07:41:04.041Z,28.77
2019-04-29T07:43:32.966Z,27.00
2019-04-29T07:46:16.504Z,26.65
2019-04-29T07:48:45.495Z,24.95
2019-04-29T07:51:14.641Z,27.87
2019-04-29T07:53:45.476Z,24.77
2019-04-29T07:56:15.503Z,24.15
2019-04-29T07:58:45.096Z,27.50
2019-04-29T08:01:14.275Z,24.37
2019-04-29T08:03:43.463Z,24.05
2019-04-29T08:06:12.832Z,23.80
2019-04-29T08:08:54.259Z,26.15
2019-04-29T08:11:13.161Z,23.52
2019-04-29T08:13:43.879Z,23.75
2019-04-29T08:19:04.817Z,23.22
2019-04-29T08:21:33.666Z,24.95
2019-04-29T08:24:22.536Z,23.42
2019-04-29T08:26:51.891Z,23.47
2019-04-29T08:29:21.016Z,23.25
2019-04-29T08:31:51.763Z,23.90
2019-04-29T08:34:29.174Z,22.00
2019-04-29T08:36:58.175Z,21.05
2019-04-29T08:39:29.349Z,21.07
2019-04-29T08:42:03.718Z,20.40
2019-04-29T08:44:43.051Z,18.75
2019-04-29T08:47:17.490Z,18.50
2019-04-29T08:49:46.832Z,17.87
2019-04-29T08:52:16.060Z,19.35
2019-04-29T08:54:45.124Z,18.65
2019-04-29T08:57:14.280Z,19.27
2019-04-29T08:59:49.764Z,18.32
2019-04-29T09:02:33.191Z,18.62
2019-04-29T09:04:54.024Z,18.30
2019-04-29T09:07:23.775Z,17.90
2019-04-29T09:09:56.157Z,17.65
2019-04-29T09:12:43.817Z,17.60
2019-04-29T09:15:13.836Z,16.52
2019-04-29T09:17:45.096Z,17.00
2019-04-29T09:20:17.893Z,16.62
2019-04-29T09:22:56.852Z,16.42
2019-04-29T09:26:01.702Z,16.57
2019-04-29T09:28:27.429Z,14.83
2019-04-29T09:30:51.174Z,15.78
2019-04-29T09:33:21.131Z,15.05
2019-04-29T09:35:51.050Z,15.35
2019-04-29T09:38:21.101Z,13.62
2019-04-29T09:40:59.706Z,15.23
2019-04-29T09:43:43.472Z,14.90
2019-04-29T09:46:18.608Z,15.28
2019-04-29T09:48:48.466Z,13.78
2019-04-29T09:51:22.192Z,14.78
2019-04-29T09:53:49.633Z,13.70
2019-04-29T09:56:22.405Z,14.50
2019-04-29T09:58:54.179Z,17.52
2019-04-29T10:01:30.823Z,15.85
2019-04-29T10:04:17.567Z,14.65
2019-04-29T10:06:48.809Z,15.78
2019-04-29T10:09:18.385Z,18.10
2019-04-29T10:11:47.723Z,17.23
2019-04-29T10:14:16.977Z,17.92
2019-04-29T10:16:58.787Z,16.60
2019-04-29T10:19:39.825Z,18.32
2019-04-29T10:22:09.306Z,18.82
2019-04-29T10:24:38.470Z,17.67
2019-04-29T10:27:07.904Z,16.52
2019-04-29T10:29:37.455Z,17.90
2019-04-29T10:32:08.646Z,16.45
2019-04-29T10:34:38.339Z,18.17
2019-04-29T10:37:08.902Z,18.02
2019-04-29T10:39:43.743Z,18.75
2019-04-29T10:42:14.292Z,19.25
2019-04-29T10:45:01.168Z,19.50
2019-04-29T10:48:03.551Z,20.45
2019-04-29T10:50:35.312Z,19.57
2019-04-29T10:53:10.989Z,19.57
2019-04-29T10:55:39.389Z,18.35
2019-04-29T10:58:08.839Z,18.50
2019-04-29T11:02:01.060Z,20.25
2019-04-29T11:04:24.179Z,18.77
2019-04-29T11:06:53.490Z,18.82
2019-04-29T11:09:32.677Z,20.35
2019-04-29T11:12:03.098Z,20.40
2019-04-29T11:14:33.175Z,18.62
2019-04-29T11:17:03.400Z,19.55
2019-04-29T11:19:35.021Z,22.30
2019-04-29T11:22:03.335Z,21.33
2019-04-29T11:24:52.931Z,22.13
2019-04-29T11:27:26.170Z,21.12
2019-04-29T11:29:58.471Z,21.10
2019-04-29T11:32:44.867Z,21.73
2019-04-29T11:35:39.198Z,20.17
2019-04-29T11:38:11.363Z,22.15
2019-04-29T11:40:43.912Z,21.52
2019-04-29T11:43:15.475Z,21.55
2019-04-29T11:45:44.510Z,20.05
2019-04-29T11:48:14.296Z,20.75
2019-04-29T11:50:52.949Z,21.45
2019-04-29T11:53:21.645Z,18.80
2019-04-29T11:55:52.663Z,20.23
2019-04-29T11:58:40.424Z,20.68
2019-04-29T12:01:40.069Z,20.30
2019-04-29T12:04:17.676Z,20.02
2019-04-29T12:06:46.745Z,21.50
2019-04-29T12:09:16.128Z,21.35
2019-04-29T12:11:46.192Z,21.77
2019-04-29T12:14:24.553Z,21.70
2019-04-29T12:17:03.758Z,21.40
2019-04-29T12:19:35.086Z,21.30
2019-04-29T12:22:08.889Z,22.32
2019-04-29T12:24:39.483Z,21.37
2019-04-29T12:27:10.427Z,22.50
2019-04-29T12:29:40.026Z,22.60
2019-04-29T12:32:27.450Z,22.10
2019-04-29T12:35:07.643Z,22.25
2019-04-29T12:38:15.356Z,22.37
2019-04-29T12:41:02.269Z,22.77
2019-04-29T12:43:39.533Z,20.08
2019-04-29T12:46:36.869Z,21.00
2019-04-29T12:49:08.575Z,21.87
2019-04-29T12:51:37.873Z,20.55
2019-04-29T12:54:07.111Z,21.05
2019-04-29T12:56:38.073Z,21.12
2019-04-29T12:59:10.343Z,20.43
2019-04-29T13:01:58.070Z,20.52
2019-04-29T13:04:45.093Z,19.82
2019-04-29T13:07:28.905Z,20.77
2019-04-29T13:10:02.153Z,20.12
2019-04-29T13:12:34.668Z,20.57
2019-04-29T13:15:14.137Z,21.35
2019-04-29T13:18:03.585Z,21.35
2019-04-29T13:20:28.511Z,19.80
2019-04-29T13:23:01.025Z,21.65
2019-04-29T13:25:28.757Z,20.23
2019-04-29T13:28:04.045Z,21.50
2019-04-29T13:30:33.538Z,20.17
2019-04-29T13:33:05.930Z,19.80
2019-04-29T13:35:33.254Z,19.32
2019-04-29T13:38:02.456Z,19.35
2019-04-29T13:40:32.941Z,18.52
2019-04-29T13:43:02.843Z,20.27
2019-04-29T13:45:41.370Z,18.77
2019-04-29T13:48:30.474Z,19.52
2019-04-29T13:51:04.379Z,18.90
2019-04-29T13:53:33.779Z,18.73
2019-04-29T13:56:11.573Z,18.15
2019-04-29T13:58:34.605Z,18.65
2019-04-29T14:01:24.658Z,17.00
2019-04-29T14:03:49.874Z,13.32
2019-04-29T14:06:19.930Z,12.28
2019-04-29T14:08:49.342Z,12.55
2019-04-29T14:11:21.950Z,12.60
2019-04-29T14:13:49.699Z,11.83
2019-04-29T14:16:19.433Z,12.88
2019-04-29T14:18:49.904Z,12.78
2019-04-29T14:21:19.697Z,12.28
2019-04-29T14:23:49.051Z,11.55
2019-04-29T14:26:18.443Z,12.07
2019-04-29T14:28:49.120Z,11.55
2019-04-29T14:31:22.432Z,11.75
2019-04-29T14:34:01.637Z,11.43
2019-04-29T14:36:31.087Z,12.23
2019-04-29T14:39:00.344Z,12.20
2019-04-29T14:41:31.436Z,12.18
2019-04-29T14:44:19.991Z,12.73
2019-04-29T14:47:08.103Z,11.55
2019-04-29T14:49:41.273Z,11.53
2019-04-29T14:52:13.233Z,11.05
2019-04-29T14:54:42.115Z,11.10
2019-04-29T14:57:12.254Z,11.20
2019-04-29T14:59:42.323Z,11.33
2019-04-29T15:02:19.213Z,10.90
2019-04-29T15:04:49.547Z,11.00
2019-04-29T15:07:19.034Z,12.25
2019-04-29T15:09:57.609Z,11.22
2019-04-29T15:13:06.735Z,9.30
2019-04-29T15:16:04.236Z,9.65
2019-04-29T15:18:57.624Z,10.50
2019-04-29T15:21:58.451Z,10.25
2019-04-29T15:24:32.696Z,9.68
2019-04-29T15:27:02.905Z,9.60
2019-04-29T15:29:34.942Z,9.85
2019-04-29T15:34:54.937Z,10.32
2019-04-29T15:37:28.126Z,10.43
2019-04-29T15:39:58.416Z,11.48
2019-04-29T15:42:28.588Z,11.70
2019-04-29T15:45:00.301Z,10.23
2019-04-29T15:47:31.483Z,9.85
2019-04-29T15:50:03.620Z,10.10
2019-04-29T15:52:32.981Z,10.65
2019-04-29T15:55:04.785Z,9.60
2019-04-29T15:57:34.389Z,10.55
2019-04-29T16:00:20.743Z,10.68
2019-04-29T16:02:40.231Z,8.85
2019-04-29T16:05:25.224Z,9.05
2019-04-29T16:08:13.113Z,9.70
2019-04-29T16:11:11.256Z,8.43
2019-04-29T16:13:41.123Z,8.90
2019-04-29T16:16:10.220Z,9.65
2019-04-29T16:18:39.918Z,8.60
2019-04-29T16:21:08.932Z,8.10
2019-04-29T16:23:38.564Z,9.20
2019-04-29T16:26:09.315Z,7.67
2019-04-29T16:28:40.179Z,8.25
2019-04-29T16:31:12.183Z,7.30
2019-04-29T16:33:39.899Z,6.75
2019-04-29T16:36:08.954Z,6.08
2019-04-29T16:38:37.990Z,6.65
2019-04-29T16:41:26.819Z,5.67
2019-04-29T16:43:56.420Z,5.87
2019-04-29T16:46:37.307Z,5.45
2019-04-29T16:49:02.456Z,6.00
2019-04-29T16:51:31.774Z,5.10
2019-04-29T16:54:00.902Z,5.85
2019-04-29T16:56:29.888Z,6.00
2019-04-29T16:58:59.026Z,5.30
2019-04-29T17:01:28.559Z,4.53
2019-04-29T17:04:04.860Z,5.12
2019-04-29T17:06:28.614Z,4.37
2019-04-29T17:09:23.380Z,4.95
2019-04-29T17:11:56.134Z,5.17
2019-04-29T17:14:24.264Z,5.00
2019-04-29T17:16:53.410Z,4.42
2019-04-29T17:19:22.496Z,6.20
2019-04-29T17:21:51.620Z,5.47
2019-04-29T17:24:20.573Z,4.33
2019-04-29T17:27:07.094Z,4.92
2019-04-29T17:30:10.691Z,4.30
2019-04-29T17:32:56.372Z,4.50
2019-04-29T17:35:27.838Z,5.12
2019-04-29T17:37:57.011Z,4.42
2019-04-29T17:40:27.609Z,4.55
2019-04-29T17:43:09.141Z,3.75
2019-04-29T17:45:46.562Z,3.22
2019-04-29T17:48:25.428Z,3.87
2019-04-29T17:50:57.920Z,4.00
2019-04-29T17:53:31.153Z,3.87
2019-04-29T17:56:17.237Z,3.67
2019-04-29T17:58:51.725Z,3.75
2019-04-29T18:01:42.568Z,3.12
2019-04-29T18:04:31.870Z,3.92
2019-04-29T18:07:18.373Z,4.20
2019-04-29T18:10:06.477Z,3.75
2019-04-29T18:12:40.932Z,4.17
2019-04-29T18:15:06.258Z,3.00
2019-04-29T18:17:36.220Z,4.17
2019-04-29T18:20:17.648Z,3.47
2019-04-29T18:23:20.921Z,3.50
2019-04-29T18:26:14.836Z,3.30
2019-04-29T18:28:45.778Z,3.37
2019-04-29T18:31:14.754Z,3.75
2019-04-29T18:33:45.093Z,3.30
2019-04-29T18:36:21.972Z,3.80
2019-04-29T18:38:48.708Z,3.40
2019-04-29T18:41:24.251Z,2.67
2019-04-29T18:43:46.289Z,3.52
2019-04-29T18:46:16.699Z,4.20
2019-04-29T18:48:45.760Z,2.72
2019-04-29T18:51:15.385Z,3.45
2019-04-29T18:53:44.338Z,3.65
2019-04-29T18:56:14.779Z,3.67
2019-04-29T18:58:46.837Z,3.62
2019-04-29T19:01:14.996Z,4.20
2019-04-29T19:04:04.786Z,3.50
2019-04-29T19:06:33.581Z,3.02
2019-04-29T19:09:02.873Z,3.33
2019-04-29T19:11:32.780Z,2.92
2019-04-29T19:14:01.855Z,3.75
2019-04-29T19:16:30.702Z,3.35
2019-04-29T19:19:01.739Z,3.55
2019-04-29T19:21:31.759Z,3.90
2019-04-29T19:24:01.702Z,3.33
2019-04-29T19:26:31.265Z,3.60
2019-04-29T19:29:01.298Z,3.40
2019-04-29T19:31:31.332Z,3.00
2019-04-29T19:34:00.379Z,3.17
2019-04-29T19:36:29.563Z,3.27
2019-04-29T19:38:58.497Z,2.92
2019-04-29T19:41:27.682Z,4.12
2019-04-29T19:43:56.798Z,3.10
2019-04-29T19:46:36.861Z,3.50
2019-04-29T19:48:58.299Z,3.58
2019-04-29T19:51:27.331Z,3.77
2019-04-29T19:53:56.319Z,3.60
2019-04-29T19:56:27.102Z,3.58
2019-04-29T19:58:57.873Z,2.70
2019-04-29T20:01:32.093Z,3.37
2019-04-29T20:04:22.264Z,4.90
2019-04-29T20:06:49.459Z,3.40
2019-04-29T20:09:22.714Z,3.10
2019-04-29T20:11:51.940Z,3.12
2019-04-29T20:14:27.326Z,3.37
2019-04-29T20:17:13.968Z,3.55
2019-04-29T20:19:50.753Z,3.62
2019-04-29T20:22:18.453Z,2.83
2019-04-29T20:24:50.629Z,4.10
2019-04-29T20:27:20.545Z,4.58
2019-04-29T20:29:49.004Z,4.42
2019-04-29T20:32:22.428Z,4.50
2019-04-29T20:34:48.705Z,4.53
2019-04-29T20:37:19.788Z,4.70
2019-04-29T20:39:51.913Z,4.97
2019-04-29T20:42:19.027Z,4.87
2019-04-29T20:44:49.393Z,4.58
2019-04-29T20:47:23.106Z,4.12
2019-04-29T20:49:50.843Z,3.52
2019-04-29T20:52:39.040Z,3.98
2019-04-29T20:55:09.559Z,3.00
2019-04-29T20:57:38.977Z,3.98
2019-04-29T21:00:09.075Z,3.45
2019-04-29T21:02:38.272Z,3.72
2019-04-29T21:05:09.829Z,3.80
2019-04-29T21:07:38.281Z,3.50
2019-04-29T21:10:08.570Z,3.65
2019-04-29T21:12:55.781Z,4.15
2019-04-29T21:15:52.309Z,3.80
2019-04-29T21:18:20.098Z,3.50
2019-04-29T21:20:49.151Z,3.00
2019-04-29T21:23:18.368Z,3.70
2019-04-29T21:25:47.457Z,2.70
2019-04-29T21:28:16.758Z,2.80
2019-04-29T21:30:45.899Z,3.00
2019-04-29T21:33:20.998Z,4.15
2019-04-29T21:35:57.892Z,2.95
2019-04-29T21:38:45.077Z,4.40
2019-04-29T21:41:20.146Z,3.27
2019-04-29T21:43:53.555Z,3.10
2019-04-29T21:46:27.805Z,3.50
2019-04-29T21:48:51.558Z,3.60
2019-04-29T21:51:20.499Z,3.35
2019-04-29T21:53:49.418Z,2.58
2019-04-29T21:56:18.328Z,3.42
2019-04-29T21:58:47.348Z,3.95
2019-04-29T22:01:16.694Z,4.20
2019-04-29T22:03:45.706Z,2.90
2019-04-29T22:06:14.728Z,3.10
2019-04-29T22:08:45.304Z,3.22
2019-04-29T22:11:15.550Z,3.40
2019-04-29T22:13:45.358Z,3.42
2019-04-29T22:16:15.946Z,3.60
2019-04-29T22:18:51.763Z,3.05
2019-04-29T22:21:21.936Z,3.20
2019-04-29T22:23:51.000Z,3.87
2019-04-29T22:26:23.023Z,4.03
2019-04-29T22:28:49.023Z,3.15
2019-04-29T22:31:18.656Z,3.20
2019-04-29T22:33:48.911Z,3.15
2019-04-29T22:36:18.402Z,3.52
2019-04-29T22:38:48.707Z,3.40
2019-04-29T22:41:31.745Z,3.47
2019-04-29T22:44:04.911Z,3.00
2019-04-29T22:46:35.646Z,2.90
2019-04-29T22:49:05.868Z,4.42
2019-04-29T22:51:35.527Z,3.47
2019-04-29T22:54:04.806Z,3.42
2019-04-29T22:56:35.964Z,2.72
2019-04-29T22:59:05.749Z,3.62
2019-04-29T23:01:36.374Z,3.62
2019-04-29T23:04:09.559Z,3.45
2019-04-29T23:06:39.828Z,3.55
2019-04-29T23:09:07.701Z,3.60
2019-04-29T23:11:39.441Z,3.45
2019-04-29T23:14:10.034Z,4.05
2019-04-29T23:16:39.140Z,3.65
2019-04-29T23:19:09.824Z,2.80
2019-04-29T23:22:10.619Z,3.40
2019-04-29T23:25:10.586Z,3.30
2019-04-29T23:27:39.514Z,4.65
2019-04-29T23:30:08.727Z,4.25
2019-04-29T23:32:39.391Z,3.60
2019-04-29T23:35:10.050Z,4.00
2019-04-29T23:37:39.054Z,3.35
2019-04-29T23:40:08.216Z,3.33
2019-04-29T23:42:37.125Z,3.95
2019-04-29T23:45:07.238Z,3.50
2019-04-29T23:47:36.109Z,3.33
2019-04-29T23:50:05.471Z,3.40
2019-04-29T23:52:35.917Z,3.87
2019-04-29T23:55:07.771Z,4.00
2019-04-29T23:57:45.986Z,3.85
